KCNU/CNU METAR and TAF weather

Enter ICAO airport designator
Station Type Date Time Source
KCNU METAR 2021/01/20 21:52 UTC NOAA

KCNU 202152Z AUTO 19018G25KT 10SM OVC041 09/M07 A3002 RMK AO2 PK WND 20026/2132 SLP168 T00941067


Station Type Date Time Source
KCNU Decoded METAR 2021/01/20 21:52 UTC NOAA

CHANUTE JOHNSON AIRPORT, KS, United States (KCNU) 37-40N 95-29W 297M
Jan 20, 2021 - 04:52 PM EST / 2021.01.20 2152 UTC
Wind: from the S (190 degrees) at 21 MPH (18 KT) gusting to 29 MPH (25 KT):0
Visibility: 10 mile(s):0
Sky conditions: overcast
Temperature: 48.9 F (9.4 C)
Dew Point: 19.9 F (-6.7 C)
Relative Humidity: 31%
Pressure (altimeter): 30.02 in. Hg (1016 hPa)
ob: KCNU 202152Z AUTO 19018G25KT 10SM OVC041 09/M07 A3002 RMK AO2 PK WND 20026/2132 SLP168 T00941067
cycle: 22

Station Type Date Time Source
KCNU TAF 2021/01/20 18:33 UTC NOAA

TAF KCNU 201730Z 2018/2118 20020G28KT P6SM BKN060
FM210000 21016G24KT P6SM SCT200
FM210100 21013KT P6SM SCT200
FM210800 21006KT P6SM SCT250
FM211200 VRB03KT P6SM SCT030

Example: see airport list